sensor_id;sensor_type;location;lat;lon;timestamp;pressure;altitude;pressure_sealevel;temperature;humidity
54248;BME280;40161;39.768;2.722;2023-07-29T00:01:07;101009.19;;;26.14;80.73
54248;BME280;40161;39.768;2.722;2023-07-29T00:03:33;101014.50;;;26.21;79.79
54248;BME280;40161;39.768;2.722;2023-07-29T00:05:58;101015.13;;;26.07;81.24
54248;BME280;40161;39.768;2.722;2023-07-29T00:08:24;100993.97;;;25.84;81.24
54248;BME280;40161;39.768;2.722;2023-07-29T00:10:49;101016.34;;;25.96;81.66
54248;BME280;40161;39.768;2.722;2023-07-29T00:13:15;101012.22;;;25.79;82.55
54248;BME280;40161;39.768;2.722;2023-07-29T00:15:40;101041.94;;;25.89;83.09
54248;BME280;40161;39.768;2.722;2023-07-29T00:18:06;101025.84;;;25.90;83.22
54248;BME280;40161;39.768;2.722;2023-07-29T00:20:32;101014.63;;;25.90;81.86
54248;BME280;40161;39.768;2.722;2023-07-29T00:22:57;101005.50;;;25.76;82.42
54248;BME280;40161;39.768;2.722;2023-07-29T00:25:24;101019.84;;;25.69;82.84
54248;BME280;40161;39.768;2.722;2023-07-29T00:27:49;101010.16;;;25.61;80.42
54248;BME280;40161;39.768;2.722;2023-07-29T00:30:15;101008.91;;;25.62;80.44
54248;BME280;40161;39.768;2.722;2023-07-29T00:32:40;101011.25;;;25.73;80.44
54248;BME280;40161;39.768;2.722;2023-07-29T00:35:06;101013.69;;;25.93;79.99
54248;BME280;40161;39.768;2.722;2023-07-29T00:37:32;101012.75;;;25.96;78.83
54248;BME280;40161;39.768;2.722;2023-07-29T00:39:58;101015.09;;;25.88;79.10
54248;BME280;40161;39.768;2.722;2023-07-29T00:42:24;101010.41;;;25.85;78.56
54248;BME280;40161;39.768;2.722;2023-07-29T00:44:49;101007.88;;;25.87;78.76
54248;BME280;40161;39.768;2.722;2023-07-29T00:47:16;101025.06;;;25.80;79.08
54248;BME280;40161;39.768;2.722;2023-07-29T00:49:43;100968.06;;;25.30;79.91
54248;BME280;40161;39.768;2.722;2023-07-29T00:52:09;100974.09;;;25.19;81.54
54248;BME280;40161;39.768;2.722;2023-07-29T00:54:40;100988.00;;;25.23;81.96
54248;BME280;40161;39.768;2.722;2023-07-29T00:57:08;101012.88;;;25.43;81.41
54248;BME280;40161;39.768;2.722;2023-07-29T00:59:35;100989.91;;;25.26;81.82
54248;BME280;40161;39.768;2.722;2023-07-29T01:02:01;100988.44;;;25.12;83.11
54248;BME280;40161;39.768;2.722;2023-07-29T01:04:27;101001.91;;;25.26;82.87
54248;BME280;40161;39.768;2.722;2023-07-29T01:09:39;100971.50;;;25.03;82.29
54248;BME280;40161;39.768;2.722;2023-07-29T01:12:42;101005.50;;;25.27;82.04
54248;BME280;40161;39.768;2.722;2023-07-29T01:15:26;101000.78;;;25.24;82.17
54248;BME280;40161;39.768;2.722;2023-07-29T01:18:06;100993.78;;;25.28;80.68
54248;BME280;40161;39.768;2.722;2023-07-29T01:20:37;100971.47;;;25.25;80.21
54248;BME280;40161;39.768;2.722;2023-07-29T01:23:04;100994.84;;;25.22;81.24
54248;BME280;40161;39.768;2.722;2023-07-29T01:25:29;100980.66;;;24.94;82.77
54248;BME280;40161;39.768;2.722;2023-07-29T01:27:55;101011.88;;;25.27;81.95
54248;BME280;40161;39.768;2.722;2023-07-29T01:30:23;101004.09;;;25.31;81.92
54248;BME280;40161;39.768;2.722;2023-07-29T01:33:06;100961.06;;;25.03;81.31
54248;BME280;40161;39.768;2.722;2023-07-29T01:35:49;100963.03;;;24.94;82.11
54248;BME280;40161;39.768;2.722;2023-07-29T01:38:22;100993.75;;;24.97;82.89
54248;BME280;40161;39.768;2.722;2023-07-29T01:40:50;100980.91;;;24.87;83.20
54248;BME280;40161;39.768;2.722;2023-07-29T01:43:17;100959.66;;;24.77;83.26
54248;BME280;40161;39.768;2.722;2023-07-29T01:45:44;100986.09;;;24.89;84.04
54248;BME280;40161;39.768;2.722;2023-07-29T01:48:09;100976.69;;;24.82;84.41
54248;BME280;40161;39.768;2.722;2023-07-29T01:50:35;100990.59;;;24.86;84.62
54248;BME280;40161;39.768;2.722;2023-07-29T01:53:01;100996.63;;;25.06;83.90
54248;BME280;40161;39.768;2.722;2023-07-29T01:55:26;100935.28;;;24.65;82.42
54248;BME280;40161;39.768;2.722;2023-07-29T01:57:52;100926.00;;;24.33;82.95
54248;BME280;40161;39.768;2.722;2023-07-29T02:00:19;100980.41;;;24.79;83.59
54248;BME280;40161;39.768;2.722;2023-07-29T02:02:45;100939.97;;;24.46;83.62
54248;BME280;40161;39.768;2.722;2023-07-29T02:05:10;100925.88;;;24.36;84.98
54248;BME280;40161;39.768;2.722;2023-07-29T02:07:37;100977.13;;;24.81;84.36
54248;BME280;40161;39.768;2.722;2023-07-29T02:10:03;100966.88;;;24.87;84.12
54248;BME280;40161;39.768;2.722;2023-07-29T02:12:29;100993.34;;;25.08;83.70
54248;BME280;40161;39.768;2.722;2023-07-29T02:14:54;100995.72;;;25.09;82.80
54248;BME280;40161;39.768;2.722;2023-07-29T02:17:20;100986.69;;;25.15;82.29
54248;BME280;40161;39.768;2.722;2023-07-29T02:19:46;100998.28;;;25.17;81.37
54248;BME280;40161;39.768;2.722;2023-07-29T02:22:16;100960.00;;;24.57;84.01
54248;BME280;40161;39.768;2.722;2023-07-29T02:24:42;100976.00;;;24.47;86.67
54248;BME280;40161;39.768;2.722;2023-07-29T02:27:08;100956.25;;;24.38;86.15
54248;BME280;40161;39.768;2.722;2023-07-29T02:29:33;100964.50;;;24.54;85.71
54248;BME280;40161;39.768;2.722;2023-07-29T02:32:02;100964.66;;;24.51;86.25
54248;BME280;40161;39.768;2.722;2023-07-29T02:34:29;100964.69;;;24.60;86.41
54248;BME280;40161;39.768;2.722;2023-07-29T02:36:54;100949.78;;;24.41;86.84
54248;BME280;40161;39.768;2.722;2023-07-29T02:39:20;100934.91;;;24.19;86.84
54248;BME280;40161;39.768;2.722;2023-07-29T02:41:45;100955.75;;;24.52;86.36
54248;BME280;40161;39.768;2.722;2023-07-29T02:44:11;100961.38;;;24.74;85.38
54248;BME280;40161;39.768;2.722;2023-07-29T02:46:37;100958.44;;;24.78;84.40
54248;BME280;40161;39.768;2.722;2023-07-29T02:49:03;100974.66;;;24.83;83.64
54248;BME280;40161;39.768;2.722;2023-07-29T02:51:30;100956.63;;;24.40;85.88
54248;BME280;40161;39.768;2.722;2023-07-29T02:53:55;100949.66;;;24.32;85.79
54248;BME280;40161;39.768;2.722;2023-07-29T02:56:21;100970.38;;;24.47;85.98
54248;BME280;40161;39.768;2.722;2023-07-29T02:58:46;100950.78;;;24.34;86.55
54248;BME280;40161;39.768;2.722;2023-07-29T03:01:12;100969.03;;;24.39;87.81
54248;BME280;40161;39.768;2.722;2023-07-29T03:03:37;100959.34;;;24.53;86.72
54248;BME280;40161;39.768;2.722;2023-07-29T03:06:07;100966.59;;;24.63;86.02
54248;BME280;40161;39.768;2.722;2023-07-29T03:08:34;100942.84;;;24.33;87.10
54248;BME280;40161;39.768;2.722;2023-07-29T03:11:05;100934.28;;;24.36;86.31
54248;BME280;40161;39.768;2.722;2023-07-29T03:13:32;100955.69;;;24.43;86.63
54248;BME280;40161;39.768;2.722;2023-07-29T03:16:13;100973.97;;;24.48;87.21
54248;BME280;40161;39.768;2.722;2023-07-29T03:18:42;100943.00;;;24.16;88.49
54248;BME280;40161;39.768;2.722;2023-07-29T03:21:08;100938.91;;;24.30;87.19
54248;BME280;40161;39.768;2.722;2023-07-29T03:23:35;100933.34;;;24.39;86.13
54248;BME280;40161;39.768;2.722;2023-07-29T03:26:02;100963.47;;;24.61;85.10
54248;BME280;40161;39.768;2.722;2023-07-29T03:28:31;100958.56;;;24.52;85.25
54248;BME280;40161;39.768;2.722;2023-07-29T03:30:58;100968.97;;;24.30;86.01
54248;BME280;40161;39.768;2.722;2023-07-29T03:33:25;100978.00;;;24.12;88.61
54248;BME280;40161;39.768;2.722;2023-07-29T03:35:51;100958.44;;;23.99;87.72
54248;BME280;40161;39.768;2.722;2023-07-29T03:38:17;100932.91;;;23.84;86.71
54248;BME280;40161;39.768;2.722;2023-07-29T03:40:43;100973.91;;;23.91;88.97
54248;BME280;40161;39.768;2.722;2023-07-29T03:43:10;100980.03;;;24.11;88.71
54248;BME280;40161;39.768;2.722;2023-07-29T03:45:36;100974.47;;;24.33;87.15
54248;BME280;40161;39.768;2.722;2023-07-29T03:48:02;100974.91;;;24.32;86.67
54248;BME280;40161;39.768;2.722;2023-07-29T03:50:29;100932.56;;;23.95;86.70
54248;BME280;40161;39.768;2.722;2023-07-29T03:52:55;100942.91;;;23.85;87.95
54248;BME280;40161;39.768;2.722;2023-07-29T03:55:20;100967.00;;;23.83;89.32
54248;BME280;40161;39.768;2.722;2023-07-29T03:57:46;100940.34;;;23.65;89.95
54248;BME280;40161;39.768;2.722;2023-07-29T04:00:12;100928.13;;;23.59;90.27
54248;BME280;40161;39.768;2.722;2023-07-29T04:02:37;100949.88;;;23.68;90.33
54248;BME280;40161;39.768;2.722;2023-07-29T04:05:05;100983.56;;;23.90;90.89
54248;BME280;40161;39.768;2.722;2023-07-29T04:07:31;100940.41;;;23.87;88.64
54248;BME280;40161;39.768;2.722;2023-07-29T04:09:58;100954.38;;;24.00;87.37
54248;BME280;40161;39.768;2.722;2023-07-29T04:12:24;100956.94;;;24.07;87.01
54248;BME280;40161;39.768;2.722;2023-07-29T04:14:50;100957.53;;;24.02;86.29
54248;BME280;40161;39.768;2.722;2023-07-29T04:17:15;100949.94;;;23.90;87.38
54248;BME280;40161;39.768;2.722;2023-07-29T04:19:41;100952.50;;;23.97;87.05
54248;BME280;40161;39.768;2.722;2023-07-29T04:22:06;100970.91;;;23.85;86.19
54248;BME280;40161;39.768;2.722;2023-07-29T04:24:32;100937.56;;;23.40;87.79
54248;BME280;40161;39.768;2.722;2023-07-29T04:26:57;100947.31;;;23.48;88.21
54248;BME280;40161;39.768;2.722;2023-07-29T04:29:23;100942.84;;;23.51;87.71
54248;BME280;40161;39.768;2.722;2023-07-29T04:31:50;100932.97;;;23.46;88.42
54248;BME280;40161;39.768;2.722;2023-07-29T04:34:15;100944.94;;;23.46;88.76
54248;BME280;40161;39.768;2.722;2023-07-29T04:36:41;100972.94;;;23.59;89.19
54248;BME280;40161;39.768;2.722;2023-07-29T04:39:06;100972.06;;;23.50;90.10
54248;BME280;40161;39.768;2.722;2023-07-29T04:41:33;100973.97;;;23.53;90.34
54248;BME280;40161;39.768;2.722;2023-07-29T04:43:58;100969.91;;;23.66;90.62
54248;BME280;40161;39.768;2.722;2023-07-29T04:46:24;100960.38;;;23.77;88.50
54248;BME280;40161;39.768;2.722;2023-07-29T04:48:49;100947.50;;;23.79;88.44
54248;BME280;40161;39.768;2.722;2023-07-29T04:51:15;100937.97;;;23.77;88.28
54248;BME280;40161;39.768;2.722;2023-07-29T04:53:40;100964.28;;;23.92;87.26
54248;BME280;40161;39.768;2.722;2023-07-29T04:56:06;100970.91;;;23.85;86.69
54248;BME280;40161;39.768;2.722;2023-07-29T04:58:31;100952.78;;;23.39;87.10
54248;BME280;40161;39.768;2.722;2023-07-29T05:01:00;100945.97;;;23.40;86.78
54248;BME280;40161;39.768;2.722;2023-07-29T05:03:25;101000.75;;;23.41;88.07
54248;BME280;40161;39.768;2.722;2023-07-29T05:05:51;100950.13;;;22.97;87.83
54248;BME280;40161;39.768;2.722;2023-07-29T05:08:18;100937.06;;;22.78;89.03
54248;BME280;40161;39.768;2.722;2023-07-29T05:10:44;100986.06;;;23.24;87.10
54248;BME280;40161;39.768;2.722;2023-07-29T05:13:10;100932.19;;;22.94;86.69
54248;BME280;40161;39.768;2.722;2023-07-29T05:15:35;100938.94;;;23.10;87.02
54248;BME280;40161;39.768;2.722;2023-07-29T05:18:01;101003.63;;;23.63;87.35
54248;BME280;40161;39.768;2.722;2023-07-29T05:20:26;100996.75;;;23.67;86.17
54248;BME280;40161;39.768;2.722;2023-07-29T05:22:52;100977.19;;;23.64;85.19
54248;BME280;40161;39.768;2.722;2023-07-29T05:25:17;100932.53;;;23.22;85.45
54248;BME280;40161;39.768;2.722;2023-07-29T05:27:43;101008.34;;;23.66;85.38
54248;BME280;40161;39.768;2.722;2023-07-29T05:30:08;100991.09;;;23.55;84.47
54248;BME280;40161;39.768;2.722;2023-07-29T05:32:34;101013.19;;;23.78;83.68
54248;BME280;40161;39.768;2.722;2023-07-29T05:34:59;101020.22;;;23.96;84.03
54248;BME280;40161;39.768;2.722;2023-07-29T05:37:26;101010.47;;;23.87;84.14
54248;BME280;40161;39.768;2.722;2023-07-29T05:39:51;101017.84;;;23.94;82.93
54248;BME280;40161;39.768;2.722;2023-07-29T05:42:17;101031.88;;;23.94;81.39
54248;BME280;40161;39.768;2.722;2023-07-29T05:44:43;100967.81;;;23.19;81.84
54248;BME280;40161;39.768;2.722;2023-07-29T05:47:08;100987.53;;;23.16;82.68
54248;BME280;40161;39.768;2.722;2023-07-29T05:49:34;101010.22;;;23.05;84.88
54248;BME280;40161;39.768;2.722;2023-07-29T05:51:59;100996.63;;;22.91;85.49
54248;BME280;40161;39.768;2.722;2023-07-29T05:54:25;101004.84;;;22.98;83.53
54248;BME280;40161;39.768;2.722;2023-07-29T05:56:50;101032.78;;;23.27;83.52
54248;BME280;40161;39.768;2.722;2023-07-29T05:59:16;101019.44;;;23.18;84.31
54248;BME280;40161;39.768;2.722;2023-07-29T06:01:42;100989.41;;;23.06;85.56
54248;BME280;40161;39.768;2.722;2023-07-29T06:04:07;101031.44;;;23.32;85.11
54248;BME280;40161;39.768;2.722;2023-07-29T06:06:33;100993.66;;;22.98;86.60
54248;BME280;40161;39.768;2.722;2023-07-29T06:08:58;101050.88;;;23.22;87.90
54248;BME280;40161;39.768;2.722;2023-07-29T06:11:24;100977.66;;;23.11;86.08
54248;BME280;40161;39.768;2.722;2023-07-29T06:13:50;101013.28;;;23.36;84.56
54248;BME280;40161;39.768;2.722;2023-07-29T06:16:15;101001.19;;;23.27;85.06
54248;BME280;40161;39.768;2.722;2023-07-29T06:18:41;101019.34;;;23.48;85.59
54248;BME280;40161;39.768;2.722;2023-07-29T06:21:06;101023.94;;;23.54;83.99
54248;BME280;40161;39.768;2.722;2023-07-29T06:23:36;101061.25;;;23.77;83.62
54248;BME280;40161;39.768;2.722;2023-07-29T06:26:02;101035.59;;;23.65;82.75
54248;BME280;40161;39.768;2.722;2023-07-29T06:28:28;101034.47;;;23.76;81.92
54248;BME280;40161;39.768;2.722;2023-07-29T06:30:54;101016.66;;;23.69;81.68
54248;BME280;40161;39.768;2.722;2023-07-29T06:33:19;101024.53;;;23.75;80.69
54248;BME280;40161;39.768;2.722;2023-07-29T06:35:45;101050.28;;;23.95;80.77
54248;BME280;40161;39.768;2.722;2023-07-29T06:38:10;101038.56;;;24.09;80.66
54248;BME280;40161;39.768;2.722;2023-07-29T06:40:36;101047.94;;;24.28;79.59
54248;BME280;40161;39.768;2.722;2023-07-29T06:43:01;101027.13;;;24.16;78.40
54248;BME280;40161;39.768;2.722;2023-07-29T06:45:27;101004.56;;;24.20;77.59
54248;BME280;40161;39.768;2.722;2023-07-29T06:47:52;101010.94;;;24.21;76.85
54248;BME280;40161;39.768;2.722;2023-07-29T06:50:18;101034.69;;;24.42;76.14
54248;BME280;40161;39.768;2.722;2023-07-29T06:52:45;101021.91;;;24.41;75.12
54248;BME280;40161;39.768;2.722;2023-07-29T06:55:10;100995.78;;;24.31;73.64
54248;BME280;40161;39.768;2.722;2023-07-29T06:57:37;101009.84;;;24.53;72.01
54248;BME280;40161;39.768;2.722;2023-07-29T07:00:03;101038.09;;;24.80;71.29
54248;BME280;40161;39.768;2.722;2023-07-29T07:02:29;101018.41;;;24.71;70.33
54248;BME280;40161;39.768;2.722;2023-07-29T07:04:55;101035.22;;;24.93;69.68
54248;BME280;40161;39.768;2.722;2023-07-29T07:07:21;100977.22;;;24.68;68.20
54248;BME280;40161;39.768;2.722;2023-07-29T07:09:46;100979.78;;;24.75;67.64
54248;BME280;40161;39.768;2.722;2023-07-29T07:12:12;100995.34;;;24.98;66.31
54248;BME280;40161;39.768;2.722;2023-07-29T07:14:38;101002.09;;;25.10;66.23
54248;BME280;40161;39.768;2.722;2023-07-29T07:17:03;101013.91;;;25.27;66.77
54248;BME280;40161;39.768;2.722;2023-07-29T07:19:29;100986.03;;;25.10;66.44
54248;BME280;40161;39.768;2.722;2023-07-29T07:21:54;100982.19;;;25.17;66.06
54248;BME280;40161;39.768;2.722;2023-07-29T07:24:20;101003.03;;;25.38;66.16
54248;BME280;40161;39.768;2.722;2023-07-29T07:26:45;100998.53;;;25.41;66.31
54248;BME280;40161;39.768;2.722;2023-07-29T07:29:11;101002.59;;;25.49;65.82
54248;BME280;40161;39.768;2.722;2023-07-29T07:31:36;101020.63;;;25.70;66.61
54248;BME280;40161;39.768;2.722;2023-07-29T07:34:02;100989.53;;;25.55;66.60
54248;BME280;40161;39.768;2.722;2023-07-29T07:36:29;100936.59;;;25.44;70.88
54248;BME280;40161;39.768;2.722;2023-07-29T07:38:54;100996.19;;;25.89;72.41
54248;BME280;40161;39.768;2.722;2023-07-29T07:41:20;100989.47;;;25.86;73.41
54248;BME280;40161;39.768;2.722;2023-07-29T07:43:45;100968.66;;;25.74;73.19
54248;BME280;40161;39.768;2.722;2023-07-29T07:46:11;100987.47;;;25.96;72.94
54248;BME280;40161;39.768;2.722;2023-07-29T07:48:37;100961.03;;;25.84;72.57
54248;BME280;40161;39.768;2.722;2023-07-29T07:51:13;101004.81;;;26.13;72.54
54248;BME280;40161;39.768;2.722;2023-07-29T07:53:39;100985.75;;;26.08;72.60
54248;BME280;40161;39.768;2.722;2023-07-29T07:56:06;100953.88;;;25.92;71.40
54248;BME280;40161;39.768;2.722;2023-07-29T07:58:32;100974.81;;;26.10;70.85
54248;BME280;40161;39.768;2.722;2023-07-29T08:01:05;101006.53;;;26.38;70.14
54248;BME280;40161;39.768;2.722;2023-07-29T08:03:31;101018.91;;;26.49;69.46
54248;BME280;40161;39.768;2.722;2023-07-29T08:05:57;100997.47;;;26.34;68.96
54248;BME280;40161;39.768;2.722;2023-07-29T08:08:23;101005.75;;;26.46;67.77
54248;BME280;40161;39.768;2.722;2023-07-29T08:10:49;101000.00;;;26.50;66.41
54248;BME280;40161;39.768;2.722;2023-07-29T08:13:14;100991.84;;;26.70;63.17
54248;BME280;40161;39.768;2.722;2023-07-29T08:15:40;101003.56;;;26.78;62.79
54248;BME280;40161;39.768;2.722;2023-07-29T08:18:06;101014.50;;;26.85;63.35
54248;BME280;40161;39.768;2.722;2023-07-29T08:20:32;100937.47;;;26.37;62.62
54248;BME280;40161;39.768;2.722;2023-07-29T08:22:58;101006.34;;;26.87;63.86
54248;BME280;40161;39.768;2.722;2023-07-29T08:25:23;101028.66;;;27.09;63.95
54248;BME280;40161;39.768;2.722;2023-07-29T08:27:49;101000.97;;;27.08;67.98
54248;BME280;40161;39.768;2.722;2023-07-29T08:30:15;100966.91;;;26.96;71.84
54248;BME280;40161;39.768;2.722;2023-07-29T08:32:41;101008.44;;;27.29;74.20
54248;BME280;40161;39.768;2.722;2023-07-29T08:35:07;101023.72;;;27.47;75.38
54248;BME280;40161;39.768;2.722;2023-07-29T08:37:33;101019.16;;;27.49;76.79
54248;BME280;40161;39.768;2.722;2023-07-29T08:39:59;101038.97;;;27.64;76.20
54248;BME280;40161;39.768;2.722;2023-07-29T08:42:29;100995.81;;;27.49;77.20
54248;BME280;40161;39.768;2.722;2023-07-29T08:44:56;101016.34;;;27.73;78.09
54248;BME280;40161;39.768;2.722;2023-07-29T08:47:22;101003.72;;;27.68;79.40
54248;BME280;40161;39.768;2.722;2023-07-29T08:49:48;101027.84;;;27.93;78.05
54248;BME280;40161;39.768;2.722;2023-07-29T08:52:16;101006.03;;;27.79;76.60
54248;BME280;40161;39.768;2.722;2023-07-29T08:54:42;101026.63;;;27.95;77.50
54248;BME280;40161;39.768;2.722;2023-07-29T08:57:08;101033.88;;;28.10;77.45
54248;BME280;40161;39.768;2.722;2023-07-29T08:59:34;101029.19;;;28.07;77.58
54248;BME280;40161;39.768;2.722;2023-07-29T09:02:00;101037.78;;;28.13;77.08
54248;BME280;40161;39.768;2.722;2023-07-29T09:04:25;101031.63;;;28.14;77.12
54248;BME280;40161;39.768;2.722;2023-07-29T09:06:51;101023.06;;;28.09;75.74
54248;BME280;40161;39.768;2.722;2023-07-29T09:09:18;101030.69;;;28.17;72.93
54248;BME280;40161;39.768;2.722;2023-07-29T09:11:44;101001.28;;;28.09;70.25
54248;BME280;40161;39.768;2.722;2023-07-29T09:14:10;101021.66;;;28.28;70.82
54248;BME280;40161;39.768;2.722;2023-07-29T09:16:36;101028.81;;;28.38;68.07
54248;BME280;40161;39.768;2.722;2023-07-29T09:19:02;100988.06;;;28.15;67.59
54248;BME280;40161;39.768;2.722;2023-07-29T09:21:32;101039.84;;;28.51;66.77
54248;BME280;40161;39.768;2.722;2023-07-29T09:24:03;101029.72;;;28.59;67.05
54248;BME280;40161;39.768;2.722;2023-07-29T09:26:29;101029.25;;;28.61;67.61
54248;BME280;40161;39.768;2.722;2023-07-29T09:28:57;101038.81;;;28.78;68.22
54248;BME280;40161;39.768;2.722;2023-07-29T09:31:27;101029.00;;;28.74;66.13
54248;BME280;40161;39.768;2.722;2023-07-29T09:34:00;101007.13;;;28.59;66.68
54248;BME280;40161;39.768;2.722;2023-07-29T09:36:27;101025.34;;;28.73;65.64
54248;BME280;40161;39.768;2.722;2023-07-29T09:38:56;101051.19;;;28.96;66.07
54248;BME280;40161;39.768;2.722;2023-07-29T09:41:26;101035.72;;;28.91;64.99
54248;BME280;40161;39.768;2.722;2023-07-29T09:44:02;101019.94;;;28.84;66.32
54248;BME280;40161;39.768;2.722;2023-07-29T09:46:36;101058.44;;;29.12;66.46
54248;BME280;40161;39.768;2.722;2023-07-29T09:49:04;101053.38;;;29.16;68.40
54248;BME280;40161;39.768;2.722;2023-07-29T09:51:29;101004.53;;;28.85;68.31
54248;BME280;40161;39.768;2.722;2023-07-29T09:53:55;101065.34;;;29.25;69.96
54248;BME280;40161;39.768;2.722;2023-07-29T09:56:25;101058.81;;;29.34;69.75
54248;BME280;40161;39.768;2.722;2023-07-29T09:58:52;101059.38;;;29.38;70.95
54248;BME280;40161;39.768;2.722;2023-07-29T10:01:18;101067.66;;;29.42;71.39
54248;BME280;40161;39.768;2.722;2023-07-29T10:03:44;101061.03;;;29.45;70.54
54248;BME280;40161;39.768;2.722;2023-07-29T10:06:10;101049.56;;;29.33;70.92
54248;BME280;40161;39.768;2.722;2023-07-29T10:08:36;101060.75;;;29.43;69.69
54248;BME280;40161;39.768;2.722;2023-07-29T10:11:06;101045.44;;;29.34;70.00
54248;BME280;40161;39.768;2.722;2023-07-29T10:13:32;101054.69;;;29.50;70.27
54248;BME280;40161;39.768;2.722;2023-07-29T10:15:58;101062.59;;;29.61;70.42
54248;BME280;40161;39.768;2.722;2023-07-29T10:18:24;101044.25;;;29.56;69.10
54248;BME280;40161;39.768;2.722;2023-07-29T10:20:51;101047.69;;;29.60;69.37
54248;BME280;40161;39.768;2.722;2023-07-29T10:23:21;101049.81;;;29.65;69.85
54248;BME280;40161;39.768;2.722;2023-07-29T10:26:04;101047.94;;;29.77;70.39
54248;BME280;40161;39.768;2.722;2023-07-29T10:28:31;101049.91;;;29.71;69.72
54248;BME280;40161;39.768;2.722;2023-07-29T10:30:58;101052.41;;;29.84;69.25
54248;BME280;40161;39.768;2.722;2023-07-29T10:33:25;101048.72;;;29.77;69.18
54248;BME280;40161;39.768;2.722;2023-07-29T10:35:54;101037.97;;;29.82;69.99
54248;BME280;40161;39.768;2.722;2023-07-29T10:38:23;101029.69;;;29.78;68.84
54248;BME280;40161;39.768;2.722;2023-07-29T10:40:54;101053.19;;;30.04;70.44
54248;BME280;40161;39.768;2.722;2023-07-29T10:45:55;101054.22;;;30.07;67.92
54248;BME280;40161;39.768;2.722;2023-07-29T10:51:24;101050.88;;;30.23;69.61
54248;BME280;40161;39.768;2.722;2023-07-29T10:53:59;101049.31;;;30.22;69.18
54248;BME280;40161;39.768;2.722;2023-07-29T10:56:36;101042.78;;;30.16;70.46
54248;BME280;40161;39.768;2.722;2023-07-29T11:01:51;101043.72;;;30.28;69.83
54248;BME280;40161;39.768;2.722;2023-07-29T11:12:39;101049.56;;;30.45;69.40
54248;BME280;40161;39.768;2.722;2023-07-29T11:20:21;101054.69;;;30.41;69.50
54248;BME280;40161;39.768;2.722;2023-07-29T11:22:47;101044.09;;;30.36;70.27
54248;BME280;40161;39.768;2.722;2023-07-29T11:25:15;101055.25;;;30.45;69.22
54248;BME280;40161;39.768;2.722;2023-07-29T11:27:41;101054.25;;;30.48;69.70
54248;BME280;40161;39.768;2.722;2023-07-29T11:30:13;101008.72;;;30.25;70.07
54248;BME280;40161;39.768;2.722;2023-07-29T11:32:40;101038.09;;;30.54;69.21
54248;BME280;40161;39.768;2.722;2023-07-29T11:35:08;101036.50;;;30.47;69.49
54248;BME280;40161;39.768;2.722;2023-07-29T11:37:36;101038.41;;;30.56;69.24
54248;BME280;40161;39.768;2.722;2023-07-29T11:40:02;101018.50;;;30.50;68.48
54248;BME280;40161;39.768;2.722;2023-07-29T11:42:31;101024.56;;;30.64;68.73
54248;BME280;40161;39.768;2.722;2023-07-29T11:44:57;101004.69;;;30.58;68.15
54248;BME280;40161;39.768;2.722;2023-07-29T11:47:24;101017.69;;;30.70;67.96
54248;BME280;40161;39.768;2.722;2023-07-29T11:49:49;101030.34;;;30.75;68.52
54248;BME280;40161;39.768;2.722;2023-07-29T11:52:18;101007.06;;;30.65;67.87
54248;BME280;40161;39.768;2.722;2023-07-29T11:54:46;101011.09;;;30.79;68.08
54248;BME280;40161;39.768;2.722;2023-07-29T11:57:12;100999.28;;;30.81;68.81
54248;BME280;40161;39.768;2.722;2023-07-29T11:59:39;101021.53;;;30.93;67.75
54248;BME280;40161;39.768;2.722;2023-07-29T12:02:13;101016.69;;;31.00;68.17
54248;BME280;40161;39.768;2.722;2023-07-29T12:04:41;101001.34;;;30.80;68.21
54248;BME280;40161;39.768;2.722;2023-07-29T12:07:07;101013.59;;;30.97;67.83
54248;BME280;40161;39.768;2.722;2023-07-29T12:09:36;101005.09;;;30.97;68.31
54248;BME280;40161;39.768;2.722;2023-07-29T12:12:06;100997.38;;;30.98;68.45
54248;BME280;40161;39.768;2.722;2023-07-29T12:14:32;101008.97;;;31.00;68.58
54248;BME280;40161;39.768;2.722;2023-07-29T12:17:02;100997.28;;;30.87;69.63
54248;BME280;40161;39.768;2.722;2023-07-29T12:19:36;101000.44;;;31.00;69.24
54248;BME280;40161;39.768;2.722;2023-07-29T12:22:03;100989.47;;;31.08;68.64
54248;BME280;40161;39.768;2.722;2023-07-29T12:24:30;100988.88;;;31.04;68.98
54248;BME280;40161;39.768;2.722;2023-07-29T12:26:56;100980.63;;;31.00;69.29
54248;BME280;40161;39.768;2.722;2023-07-29T12:29:22;100996.50;;;31.18;68.61
54248;BME280;40161;39.768;2.722;2023-07-29T12:31:48;100987.47;;;31.19;68.80
54248;BME280;40161;39.768;2.722;2023-07-29T12:34:18;100966.81;;;31.13;68.19
54248;BME280;40161;39.768;2.722;2023-07-29T12:36:47;100967.34;;;31.17;68.44
54248;BME280;40161;39.768;2.722;2023-07-29T12:39:24;100981.63;;;31.29;68.06
54248;BME280;40161;39.768;2.722;2023-07-29T12:41:52;100971.31;;;31.31;67.45
54248;BME280;40161;39.768;2.722;2023-07-29T12:44:18;100968.78;;;31.33;68.17
54248;BME280;40161;39.768;2.722;2023-07-29T12:46:44;100961.78;;;31.29;67.66
54248;BME280;40161;39.768;2.722;2023-07-29T12:49:10;100952.94;;;31.21;67.86
54248;BME280;40161;39.768;2.722;2023-07-29T12:51:36;100961.16;;;31.13;67.92
54248;BME280;40161;39.768;2.722;2023-07-29T12:54:03;100969.19;;;31.20;68.10
54248;BME280;40161;39.768;2.722;2023-07-29T12:56:30;100940.25;;;31.11;67.77
54248;BME280;40161;39.768;2.722;2023-07-29T12:58:59;100949.63;;;31.23;68.67
54248;BME280;40161;39.768;2.722;2023-07-29T13:01:25;100944.22;;;31.25;68.24
54248;BME280;40161;39.768;2.722;2023-07-29T13:03:50;100960.22;;;31.28;68.18
54248;BME280;40161;39.768;2.722;2023-07-29T13:06:16;100945.53;;;31.29;68.43
54248;BME280;40161;39.768;2.722;2023-07-29T13:08:42;100944.09;;;31.39;68.38
54248;BME280;40161;39.768;2.722;2023-07-29T13:11:08;100951.06;;;31.44;67.79
54248;BME280;40161;39.768;2.722;2023-07-29T13:13:34;100940.44;;;31.33;67.25